sensor_id;sensor_type;location;lat;lon;timestamp;pressure;altitude;pressure_sealevel;temperature;humidity
70909;BME280;58554;52.006;5.926;2023-05-22T00:02:24;100663.03;;;21.51;59.61
70909;BME280;58554;52.006;5.926;2023-05-22T00:04:50;100669.75;;;21.47;59.56
70909;BME280;58554;52.006;5.926;2023-05-22T00:07:19;100665.53;;;21.44;59.63
70909;BME280;58554;52.006;5.926;2023-05-22T00:09:46;100672.06;;;21.41;59.74
70909;BME280;58554;52.006;5.926;2023-05-22T00:12:12;100667.00;;;21.38;59.91
70909;BME280;58554;52.006;5.926;2023-05-22T00:14:39;100676.06;;;21.37;60.05
70909;BME280;58554;52.006;5.926;2023-05-22T00:17:05;100681.94;;;21.33;60.05
70909;BME280;58554;52.006;5.926;2023-05-22T00:19:32;100685.78;;;21.30;60.29
70909;BME280;58554;52.006;5.926;2023-05-22T00:21:58;100684.56;;;21.25;60.18
70909;BME280;58554;52.006;5.926;2023-05-22T00:24:27;100683.03;;;21.22;60.22
70909;BME280;58554;52.006;5.926;2023-05-22T00:26:54;100690.13;;;21.23;60.21
70909;BME280;58554;52.006;5.926;2023-05-22T00:29:20;100688.41;;;21.22;60.16
70909;BME280;58554;52.006;5.926;2023-05-22T00:31:47;100676.28;;;21.18;60.22
70909;BME280;58554;52.006;5.926;2023-05-22T00:34:13;100680.28;;;21.14;60.10
70909;BME280;58554;52.006;5.926;2023-05-22T00:36:40;100672.84;;;21.08;60.13
70909;BME280;58554;52.006;5.926;2023-05-22T00:39:06;100662.06;;;20.99;60.13
70909;BME280;58554;52.006;5.926;2023-05-22T00:41:35;100666.25;;;20.94;60.11
70909;BME280;58554;52.006;5.926;2023-05-22T00:44:02;100657.94;;;20.87;60.22
70909;BME280;58554;52.006;5.926;2023-05-22T00:46:29;100656.75;;;20.81;60.42
70909;BME280;58554;52.006;5.926;2023-05-22T00:48:55;100656.22;;;20.78;60.21
70909;BME280;58554;52.006;5.926;2023-05-22T00:51:23;100651.31;;;20.73;60.51
70909;BME280;58554;52.006;5.926;2023-05-22T00:53:50;100639.50;;;20.66;60.41
70909;BME280;58554;52.006;5.926;2023-05-22T00:56:18;100636.59;;;20.59;60.28
70909;BME280;58554;52.006;5.926;2023-05-22T00:58:48;100633.69;;;20.53;60.64
70909;BME280;58554;52.006;5.926;2023-05-22T01:01:15;100631.31;;;20.50;60.58
70909;BME280;58554;52.006;5.926;2023-05-22T01:03:42;100637.84;;;20.47;60.53
70909;BME280;58554;52.006;5.926;2023-05-22T01:06:10;100632.94;;;20.42;60.58
70909;BME280;58554;52.006;5.926;2023-05-22T01:08:37;100623.47;;;20.38;60.71
70909;BME280;58554;52.006;5.926;2023-05-22T01:11:08;100628.44;;;20.33;60.67
70909;BME280;58554;52.006;5.926;2023-05-22T01:13:49;100622.84;;;20.27;60.88
70909;BME280;58554;52.006;5.926;2023-05-22T01:16:28;100621.66;;;20.21;61.01
70909;BME280;58554;52.006;5.926;2023-05-22T01:19:10;100616.44;;;20.19;61.04
70909;BME280;58554;52.006;5.926;2023-05-22T01:21:52;100608.38;;;20.19;61.12
70909;BME280;58554;52.006;5.926;2023-05-22T01:24:59;100609.38;;;20.18;61.30
70909;BME280;58554;52.006;5.926;2023-05-22T01:27:59;100619.25;;;20.18;61.26
70909;BME280;58554;52.006;5.926;2023-05-22T01:30:49;100615.59;;;20.19;61.40
70909;BME280;58554;52.006;5.926;2023-05-22T01:33:27;100612.91;;;20.19;61.10
70909;BME280;58554;52.006;5.926;2023-05-22T01:35:59;100608.53;;;20.18;61.23
70909;BME280;58554;52.006;5.926;2023-05-22T01:38:27;100614.03;;;20.16;61.11
70909;BME280;58554;52.006;5.926;2023-05-22T01:40:55;100610.53;;;20.16;61.22
70909;BME280;58554;52.006;5.926;2023-05-22T01:43:23;100609.84;;;20.14;61.32
70909;BME280;58554;52.006;5.926;2023-05-22T01:45:52;100608.16;;;20.13;61.22
70909;BME280;58554;52.006;5.926;2023-05-22T01:48:18;100620.91;;;20.11;61.05
70909;BME280;58554;52.006;5.926;2023-05-22T01:50:46;100614.28;;;20.05;61.16
70909;BME280;58554;52.006;5.926;2023-05-22T01:53:21;100623.50;;;20.02;61.14
70909;BME280;58554;52.006;5.926;2023-05-22T01:56:05;100612.91;;;20.01;61.22
70909;BME280;58554;52.006;5.926;2023-05-22T01:58:42;100617.91;;;19.96;61.23
70909;BME280;58554;52.006;5.926;2023-05-22T02:01:18;100626.25;;;19.93;61.33
70909;BME280;58554;52.006;5.926;2023-05-22T02:03:52;100616.66;;;19.90;61.28
70909;BME280;58554;52.006;5.926;2023-05-22T02:06:24;100621.34;;;19.88;61.18
70909;BME280;58554;52.006;5.926;2023-05-22T02:08:54;100616.13;;;19.87;61.37
70909;BME280;58554;52.006;5.926;2023-05-22T02:11:23;100611.91;;;19.84;61.53
70909;BME280;58554;52.006;5.926;2023-05-22T02:13:52;100607.38;;;19.85;61.62
70909;BME280;58554;52.006;5.926;2023-05-22T02:16:22;100613.44;;;19.87;61.50
70909;BME280;58554;52.006;5.926;2023-05-22T02:18:48;100606.41;;;19.86;61.41
70909;BME280;58554;52.006;5.926;2023-05-22T02:21:15;100620.78;;;19.85;61.51
70909;BME280;58554;52.006;5.926;2023-05-22T02:23:42;100614.72;;;19.82;61.22
70909;BME280;58554;52.006;5.926;2023-05-22T02:26:08;100612.38;;;19.79;61.50
70909;BME280;58554;52.006;5.926;2023-05-22T02:28:35;100600.25;;;19.75;61.57
70909;BME280;58554;52.006;5.926;2023-05-22T02:31:01;100603.91;;;19.74;61.60
70909;BME280;58554;52.006;5.926;2023-05-22T02:33:30;100601.38;;;19.73;61.73
70909;BME280;58554;52.006;5.926;2023-05-22T02:35:56;100589.94;;;19.71;61.64
70909;BME280;58554;52.006;5.926;2023-05-22T02:38:23;100597.31;;;19.69;61.49
70909;BME280;58554;52.006;5.926;2023-05-22T02:40:49;100597.47;;;19.67;61.51
70909;BME280;58554;52.006;5.926;2023-05-22T02:43:16;100591.41;;;19.65;61.73
70909;BME280;58554;52.006;5.926;2023-05-22T02:45:42;100595.94;;;19.65;61.59
70909;BME280;58554;52.006;5.926;2023-05-22T02:48:09;100591.72;;;19.62;61.68
70909;BME280;58554;52.006;5.926;2023-05-22T02:50:38;100599.06;;;19.60;61.60
70909;BME280;58554;52.006;5.926;2023-05-22T02:53:04;100583.25;;;19.57;61.66
70909;BME280;58554;52.006;5.926;2023-05-22T02:55:31;100581.88;;;19.53;61.62
70909;BME280;58554;52.006;5.926;2023-05-22T02:57:57;100572.44;;;19.49;61.52
70909;BME280;58554;52.006;5.926;2023-05-22T03:00:24;100577.25;;;19.45;61.44
70909;BME280;58554;52.006;5.926;2023-05-22T03:02:50;100581.06;;;19.42;61.63
70909;BME280;58554;52.006;5.926;2023-05-22T03:05:17;100585.75;;;19.40;61.70
70909;BME280;58554;52.006;5.926;2023-05-22T03:07:46;100581.69;;;19.36;61.71
70909;BME280;58554;52.006;5.926;2023-05-22T03:10:13;100577.59;;;19.32;61.63
70909;BME280;58554;52.006;5.926;2023-05-22T03:12:39;100575.25;;;19.29;61.61
70909;BME280;58554;52.006;5.926;2023-05-22T03:15:07;100575.53;;;19.26;61.93
70909;BME280;58554;52.006;5.926;2023-05-22T03:17:34;100569.59;;;19.22;61.89
70909;BME280;58554;52.006;5.926;2023-05-22T03:20:01;100576.13;;;19.20;61.84
70909;BME280;58554;52.006;5.926;2023-05-22T03:22:27;100572.75;;;19.18;61.69
70909;BME280;58554;52.006;5.926;2023-05-22T03:24:57;100580.09;;;19.16;62.13
70909;BME280;58554;52.006;5.926;2023-05-22T03:27:23;100581.09;;;19.15;62.37
70909;BME280;58554;52.006;5.926;2023-05-22T03:29:49;100577.41;;;19.16;62.33
70909;BME280;58554;52.006;5.926;2023-05-22T03:32:16;100579.94;;;19.17;62.24
70909;BME280;58554;52.006;5.926;2023-05-22T03:34:42;100569.38;;;19.16;62.25
70909;BME280;58554;52.006;5.926;2023-05-22T03:37:09;100572.19;;;19.14;62.04
70909;BME280;58554;52.006;5.926;2023-05-22T03:39:35;100568.41;;;19.07;61.97
70909;BME280;58554;52.006;5.926;2023-05-22T03:42:05;100567.16;;;19.01;62.05
70909;BME280;58554;52.006;5.926;2023-05-22T03:44:31;100570.75;;;18.92;61.96
70909;BME280;58554;52.006;5.926;2023-05-22T03:46:58;100571.78;;;18.81;61.91
70909;BME280;58554;52.006;5.926;2023-05-22T03:49:24;100565.59;;;18.71;62.11
70909;BME280;58554;52.006;5.926;2023-05-22T03:51:51;100564.75;;;18.61;62.08
70909;BME280;58554;52.006;5.926;2023-05-22T03:54:17;100570.25;;;18.50;62.36
70909;BME280;58554;52.006;5.926;2023-05-22T03:56:44;100571.41;;;18.37;62.33
70909;BME280;58554;52.006;5.926;2023-05-22T03:59:13;100574.13;;;18.28;62.53
70909;BME280;58554;52.006;5.926;2023-05-22T04:01:39;100569.91;;;18.15;62.87
70909;BME280;58554;52.006;5.926;2023-05-22T04:04:06;100569.06;;;18.05;62.79
70909;BME280;58554;52.006;5.926;2023-05-22T04:06:33;100575.41;;;17.94;63.01
70909;BME280;58554;52.006;5.926;2023-05-22T04:08:59;100574.56;;;17.84;63.11
70909;BME280;58554;52.006;5.926;2023-05-22T04:11:26;100573.66;;;17.74;63.30
70909;BME280;58554;52.006;5.926;2023-05-22T04:13:52;100578.03;;;17.65;63.44
70909;BME280;58554;52.006;5.926;2023-05-22T04:16:21;100575.31;;;17.55;63.49
70909;BME280;58554;52.006;5.926;2023-05-22T04:18:48;100569.81;;;17.47;63.87
70909;BME280;58554;52.006;5.926;2023-05-22T04:21:14;100580.22;;;17.40;63.94
70909;BME280;58554;52.006;5.926;2023-05-22T04:23:41;100581.91;;;17.32;64.17
70909;BME280;58554;52.006;5.926;2023-05-22T04:26:07;100575.25;;;17.26;64.29
70909;BME280;58554;52.006;5.926;2023-05-22T04:28:33;100574.13;;;17.19;64.57
70909;BME280;58554;52.006;5.926;2023-05-22T04:31:00;100582.69;;;17.13;64.48
70909;BME280;58554;52.006;5.926;2023-05-22T04:33:29;100582.22;;;17.08;64.66
70909;BME280;58554;52.006;5.926;2023-05-22T04:35:56;100578.13;;;17.04;64.92
70909;BME280;58554;52.006;5.926;2023-05-22T04:38:22;100579.38;;;16.99;64.92
70909;BME280;58554;52.006;5.926;2023-05-22T04:40:48;100585.84;;;16.97;65.00
70909;BME280;58554;52.006;5.926;2023-05-22T04:43:15;100585.25;;;16.93;65.09
70909;BME280;58554;52.006;5.926;2023-05-22T04:45:41;100582.72;;;16.92;65.18
70909;BME280;58554;52.006;5.926;2023-05-22T04:48:08;100575.09;;;16.87;65.46
70909;BME280;58554;52.006;5.926;2023-05-22T04:50:37;100579.88;;;16.84;65.38
70909;BME280;58554;52.006;5.926;2023-05-22T04:53:03;100579.13;;;16.82;65.81
70909;BME280;58554;52.006;5.926;2023-05-22T04:55:30;100587.16;;;16.82;65.80
70909;BME280;58554;52.006;5.926;2023-05-22T04:57:56;100592.50;;;16.82;65.85
70909;BME280;58554;52.006;5.926;2023-05-22T05:00:23;100580.94;;;16.81;65.99
70909;BME280;58554;52.006;5.926;2023-05-22T05:02:50;100580.84;;;16.83;65.98
70909;BME280;58554;52.006;5.926;2023-05-22T05:05:17;100577.22;;;16.84;66.14
70909;BME280;58554;52.006;5.926;2023-05-22T05:07:46;100587.38;;;16.90;66.06
70909;BME280;58554;52.006;5.926;2023-05-22T05:10:14;100588.19;;;16.90;66.05
70909;BME280;58554;52.006;5.926;2023-05-22T05:12:41;100599.59;;;16.92;66.28
70909;BME280;58554;52.006;5.926;2023-05-22T05:15:08;100602.16;;;16.94;66.10
70909;BME280;58554;52.006;5.926;2023-05-22T05:17:35;100601.28;;;16.93;66.12
70909;BME280;58554;52.006;5.926;2023-05-22T05:20:02;100602.97;;;16.94;65.85
70909;BME280;58554;52.006;5.926;2023-05-22T05:22:30;100603.94;;;16.93;65.87
70909;BME280;58554;52.006;5.926;2023-05-22T05:24:59;100606.78;;;16.92;65.83
70909;BME280;58554;52.006;5.926;2023-05-22T05:27:26;100605.91;;;16.91;65.99
70909;BME280;58554;52.006;5.926;2023-05-22T05:29:52;100608.72;;;16.90;65.93
70909;BME280;58554;52.006;5.926;2023-05-22T05:32:18;100612.97;;;16.92;65.92
70909;BME280;58554;52.006;5.926;2023-05-22T05:34:45;100600.56;;;16.91;66.21
70909;BME280;58554;52.006;5.926;2023-05-22T05:37:11;100611.97;;;16.93;66.22
70909;BME280;58554;52.006;5.926;2023-05-22T05:39:38;100616.34;;;16.94;66.22
70909;BME280;58554;52.006;5.926;2023-05-22T05:42:07;100605.78;;;16.93;66.13
70909;BME280;58554;52.006;5.926;2023-05-22T05:44:34;100604.09;;;16.92;66.07
70909;BME280;58554;52.006;5.926;2023-05-22T05:47:00;100607.63;;;16.92;66.33
70909;BME280;58554;52.006;5.926;2023-05-22T05:49:27;100611.97;;;16.93;66.30
70909;BME280;58554;52.006;5.926;2023-05-22T05:51:53;100612.53;;;16.97;66.29
70909;BME280;58554;52.006;5.926;2023-05-22T05:54:20;100621.28;;;16.99;66.35
70909;BME280;58554;52.006;5.926;2023-05-22T05:56:46;100621.16;;;17.00;66.42
70909;BME280;58554;52.006;5.926;2023-05-22T05:59:16;100618.06;;;17.05;66.33
70909;BME280;58554;52.006;5.926;2023-05-22T06:01:43;100620.09;;;17.13;66.26
70909;BME280;58554;52.006;5.926;2023-05-22T06:04:10;100619.38;;;17.20;66.69
70909;BME280;58554;52.006;5.926;2023-05-22T06:06:37;100621.69;;;17.25;66.34
70909;BME280;58554;52.006;5.926;2023-05-22T06:09:04;100620.44;;;17.29;66.24
70909;BME280;58554;52.006;5.926;2023-05-22T06:11:31;100618.31;;;17.33;66.68
70909;BME280;58554;52.006;5.926;2023-05-22T06:13:57;100623.28;;;17.37;66.60
70909;BME280;58554;52.006;5.926;2023-05-22T06:16:26;100622.69;;;17.44;66.57
70909;BME280;58554;52.006;5.926;2023-05-22T06:18:53;100620.19;;;17.52;66.70
70909;BME280;58554;52.006;5.926;2023-05-22T06:21:20;100621.47;;;17.57;66.61
70909;BME280;58554;52.006;5.926;2023-05-22T06:23:46;100626.16;;;17.65;66.83
70909;BME280;58554;52.006;5.926;2023-05-22T06:26:13;100629.53;;;17.77;66.89
70909;BME280;58554;52.006;5.926;2023-05-22T06:28:39;100615.25;;;17.88;66.53
70909;BME280;58554;52.006;5.926;2023-05-22T06:31:06;100625.56;;;18.02;66.46
70909;BME280;58554;52.006;5.926;2023-05-22T06:33:35;100623.44;;;18.15;66.39
70909;BME280;58554;52.006;5.926;2023-05-22T06:36:02;100625.13;;;18.26;66.21
70909;BME280;58554;52.006;5.926;2023-05-22T06:38:30;100621.88;;;18.32;66.01
70909;BME280;58554;52.006;5.926;2023-05-22T06:40:57;100632.00;;;18.38;65.94
70909;BME280;58554;52.006;5.926;2023-05-22T06:43:24;100627.38;;;18.40;65.96
70909;BME280;58554;52.006;5.926;2023-05-22T06:45:50;100633.00;;;18.47;66.12
70909;BME280;58554;52.006;5.926;2023-05-22T06:48:16;100635.78;;;18.55;65.71
70909;BME280;58554;52.006;5.926;2023-05-22T06:50:46;100640.59;;;18.61;66.04
70909;BME280;58554;52.006;5.926;2023-05-22T06:53:13;100641.31;;;18.73;66.00
70909;BME280;58554;52.006;5.926;2023-05-22T06:55:39;100643.38;;;18.89;65.93
70909;BME280;58554;52.006;5.926;2023-05-22T06:58:06;100639.53;;;19.01;65.83
70909;BME280;58554;52.006;5.926;2023-05-22T07:00:32;100641.88;;;19.14;65.79
70909;BME280;58554;52.006;5.926;2023-05-22T07:02:58;100645.38;;;19.25;65.40
70909;BME280;58554;52.006;5.926;2023-05-22T07:05:25;100644.78;;;19.31;65.36
70909;BME280;58554;52.006;5.926;2023-05-22T07:07:54;100648.13;;;19.42;65.40
70909;BME280;58554;52.006;5.926;2023-05-22T07:10:21;100646.22;;;19.53;64.97
70909;BME280;58554;52.006;5.926;2023-05-22T07:12:47;100646.22;;;19.63;64.99
70909;BME280;58554;52.006;5.926;2023-05-22T07:15:14;100643.91;;;19.68;64.85
70909;BME280;58554;52.006;5.926;2023-05-22T07:17:40;100650.34;;;19.75;65.02
70909;BME280;58554;52.006;5.926;2023-05-22T07:20:08;100650.44;;;19.83;65.11
70909;BME280;58554;52.006;5.926;2023-05-22T07:22:35;100653.91;;;19.93;64.90
70909;BME280;58554;52.006;5.926;2023-05-22T07:25:05;100643.81;;;20.05;64.80
70909;BME280;58554;52.006;5.926;2023-05-22T07:27:32;100640.53;;;20.11;64.83
70909;BME280;58554;52.006;5.926;2023-05-22T07:29:59;100646.66;;;20.21;64.85
70909;BME280;58554;52.006;5.926;2023-05-22T07:32:25;100648.41;;;20.31;64.61
70909;BME280;58554;52.006;5.926;2023-05-22T07:34:52;100655.56;;;20.40;64.40
70909;BME280;58554;52.006;5.926;2023-05-22T07:37:18;100652.66;;;20.51;64.66
70909;BME280;58554;52.006;5.926;2023-05-22T07:39:44;100656.41;;;20.58;64.38
70909;BME280;58554;52.006;5.926;2023-05-22T07:42:14;100662.97;;;20.64;64.29
70909;BME280;58554;52.006;5.926;2023-05-22T07:44:40;100661.38;;;20.71;64.17
70909;BME280;58554;52.006;5.926;2023-05-22T07:47:07;100660.56;;;20.79;63.88
70909;BME280;58554;52.006;5.926;2023-05-22T07:49:33;100659.94;;;20.85;63.90
70909;BME280;58554;52.006;5.926;2023-05-22T07:52:00;100663.69;;;20.92;63.96
70909;BME280;58554;52.006;5.926;2023-05-22T07:54:26;100666.25;;;21.02;63.90
70909;BME280;58554;52.006;5.926;2023-05-22T07:56:53;100666.00;;;21.13;63.96
70909;BME280;58554;52.006;5.926;2023-05-22T07:59:22;100660.22;;;21.26;64.07
70909;BME280;58554;52.006;5.926;2023-05-22T08:01:49;100666.47;;;21.35;63.49
70909;BME280;58554;52.006;5.926;2023-05-22T08:04:15;100667.06;;;21.47;63.51
70909;BME280;58554;52.006;5.926;2023-05-22T08:06:42;100669.44;;;21.58;63.66
70909;BME280;58554;52.006;5.926;2023-05-22T08:09:08;100671.84;;;21.69;63.22
70909;BME280;58554;52.006;5.926;2023-05-22T08:11:35;100665.16;;;21.81;63.04
70909;BME280;58554;52.006;5.926;2023-05-22T08:14:01;100663.16;;;21.92;63.03
70909;BME280;58554;52.006;5.926;2023-05-22T08:16:30;100673.09;;;21.99;62.57
70909;BME280;58554;52.006;5.926;2023-05-22T08:18:57;100671.78;;;22.03;62.17
70909;BME280;58554;52.006;5.926;2023-05-22T08:21:23;100670.59;;;22.06;62.20
70909;BME280;58554;52.006;5.926;2023-05-22T08:23:50;100671.66;;;22.13;62.53
70909;BME280;58554;52.006;5.926;2023-05-22T08:26:16;100667.28;;;22.20;62.35
70909;BME280;58554;52.006;5.926;2023-05-22T08:28:43;100665.94;;;22.33;61.98
70909;BME280;58554;52.006;5.926;2023-05-22T08:31:09;100666.63;;;22.43;62.00
70909;BME280;58554;52.006;5.926;2023-05-22T08:33:38;100661.91;;;22.53;61.59
70909;BME280;58554;52.006;5.926;2023-05-22T08:36:05;100662.06;;;22.60;61.35
70909;BME280;58554;52.006;5.926;2023-05-22T08:38:32;100663.94;;;22.68;61.31
70909;BME280;58554;52.006;5.926;2023-05-22T08:40:58;100660.06;;;22.78;61.08
70909;BME280;58554;52.006;5.926;2023-05-22T08:43:25;100662.59;;;22.88;60.92
70909;BME280;58554;52.006;5.926;2023-05-22T08:45:57;100661.03;;;23.02;60.79
70909;BME280;58554;52.006;5.926;2023-05-22T08:48:29;100655.94;;;23.15;60.42
70909;BME280;58554;52.006;5.926;2023-05-22T08:51:01;100646.28;;;23.29;60.37
70909;BME280;58554;52.006;5.926;2023-05-22T08:53:33;100655.38;;;23.36;60.07
70909;BME280;58554;52.006;5.926;2023-05-22T08:56:01;100651.16;;;23.42;59.37
70909;BME280;58554;52.006;5.926;2023-05-22T08:58:31;100647.91;;;23.47;59.04
70909;BME280;58554;52.006;5.926;2023-05-22T09:01:00;100654.69;;;23.51;58.81
70909;BME280;58554;52.006;5.926;2023-05-22T09:03:28;100651.28;;;23.49;58.69
70909;BME280;58554;52.006;5.926;2023-05-22T09:05:55;100647.09;;;23.46;58.38
70909;BME280;58554;52.006;5.926;2023-05-22T09:08:24;100637.44;;;23.52;58.34
70909;BME280;58554;52.006;5.926;2023-05-22T09:10:51;100642.09;;;23.66;58.06
70909;BME280;58554;52.006;5.926;2023-05-22T09:13:25;100639.31;;;23.82;57.70
70909;BME280;58554;52.006;5.926;2023-05-22T09:15:53;100639.28;;;23.91;57.07
70909;BME280;58554;52.006;5.926;2023-05-22T09:18:26;100643.66;;;23.92;56.53
70909;BME280;58554;52.006;5.926;2023-05-22T09:20:56;100642.81;;;23.91;56.50
70909;BME280;58554;52.006;5.926;2023-05-22T09:23:26;100640.47;;;23.88;56.61
70909;BME280;58554;52.006;5.926;2023-05-22T09:25:54;100631.53;;;23.88;56.42
70909;BME280;58554;52.006;5.926;2023-05-22T09:28:21;100638.94;;;23.94;56.08
70909;BME280;58554;52.006;5.926;2023-05-22T09:30:48;100631.22;;;24.05;56.42
70909;BME280;58554;52.006;5.926;2023-05-22T09:33:15;100632.19;;;24.21;55.88
70909;BME280;58554;52.006;5.926;2023-05-22T09:35:42;100637.69;;;24.28;55.61
70909;BME280;58554;52.006;5.926;2023-05-22T09:38:09;100635.28;;;24.33;55.21
70909;BME280;58554;52.006;5.926;2023-05-22T09:40:39;100645.38;;;24.39;54.73
70909;BME280;58554;52.006;5.926;2023-05-22T09:43:06;100634.94;;;24.36;54.75
70909;BME280;58554;52.006;5.926;2023-05-22T09:45:34;100627.66;;;24.36;54.80
70909;BME280;58554;52.006;5.926;2023-05-22T09:48:01;100630.78;;;24.48;54.82
70909;BME280;58554;52.006;5.926;2023-05-22T09:50:28;100627.44;;;24.61;54.14
70909;BME280;58554;52.006;5.926;2023-05-22T09:52:55;100627.47;;;24.76;53.91
70909;BME280;58554;52.006;5.926;2023-05-22T09:55:24;100615.69;;;24.92;53.58
70909;BME280;58554;52.006;5.926;2023-05-22T09:57:55;100623.78;;;25.07;53.12
70909;BME280;58554;52.006;5.926;2023-05-22T10:00:24;100626.59;;;25.13;53.45
70909;BME280;58554;52.006;5.926;2023-05-22T10:02:55;100626.75;;;25.12;53.10
70909;BME280;58554;52.006;5.926;2023-05-22T10:05:31;100626.03;;;25.03;53.36
70909;BME280;58554;52.006;5.926;2023-05-22T10:08:11;100625.53;;;24.99;53.16
70909;BME280;58554;52.006;5.926;2023-05-22T10:10:41;100622.66;;;25.01;53.62
70909;BME280;58554;52.006;5.926;2023-05-22T10:13:15;100630.03;;;25.07;53.58
70909;BME280;58554;52.006;5.926;2023-05-22T10:15:44;100626.75;;;25.12;53.28
70909;BME280;58554;52.006;5.926;2023-05-22T10:18:13;100619.69;;;25.11;53.13
70909;BME280;58554;52.006;5.926;2023-05-22T10:20:40;100623.41;;;25.10;53.28
70909;BME280;58554;52.006;5.926;2023-05-22T10:23:08;100622.56;;;25.09;52.81
70909;BME280;58554;52.006;5.926;2023-05-22T10:25:36;100619.78;;;25.02;53.07
70909;BME280;58554;52.006;5.926;2023-05-22T10:28:03;100621.63;;;25.02;53.00
70909;BME280;58554;52.006;5.926;2023-05-22T10:30:42;100615.03;;;25.04;52.99
70909;BME280;58554;52.006;5.926;2023-05-22T10:33:17;100610.34;;;25.13;52.87
70909;BME280;58554;52.006;5.926;2023-05-22T10:35:49;100606.97;;;25.26;53.14
70909;BME280;58554;52.006;5.926;2023-05-22T10:38:36;100611.88;;;25.37;52.79
70909;BME280;58554;52.006;5.926;2023-05-22T10:41:12;100609.28;;;25.44;52.86
70909;BME280;58554;52.006;5.926;2023-05-22T10:43:40;100607.31;;;25.53;52.80
70909;BME280;58554;52.006;5.926;2023-05-22T10:46:11;100604.31;;;25.62;52.79
70909;BME280;58554;52.006;5.926;2023-05-22T10:48:39;100590.47;;;25.72;52.99
70909;BME280;58554;52.006;5.926;2023-05-22T10:51:06;100596.41;;;25.82;52.53
70909;BME280;58554;52.006;5.926;2023-05-22T10:53:34;100591.91;;;25.90;52.25
70909;BME280;58554;52.006;5.926;2023-05-22T10:56:09;100593.81;;;25.96;51.30
70909;BME280;58554;52.006;5.926;2023-05-22T10:58:37;100591.38;;;26.01;51.00
70909;BME280;58554;52.006;5.926;2023-05-22T11:01:14;100602.28;;;26.08;50.46
70909;BME280;58554;52.006;5.926;2023-05-22T11:03:52;100594.81;;;26.10;50.14
70909;BME280;58554;52.006;5.926;2023-05-22T11:06:33;100594.22;;;26.14;49.94
70909;BME280;58554;52.006;5.926;2023-05-22T11:09:19;100594.66;;;26.18;49.52
70909;BME280;58554;52.006;5.926;2023-05-22T11:12:11;100597.09;;;26.28;49.63
70909;BME280;58554;52.006;5.926;2023-05-22T11:14:46;100594.47;;;26.41;50.00
70909;BME280;58554;52.006;5.926;2023-05-22T11:17:20;100590.44;;;26.58;49.93
70909;BME280;58554;52.006;5.926;2023-05-22T11:19:58;100592.84;;;26.75;49.42
70909;BME280;58554;52.006;5.926;2023-05-22T11:22:30;100582.47;;;26.85;49.70
70909;BME280;58554;52.006;5.926;2023-05-22T11:25:05;100593.44;;;26.98;49.12
70909;BME280;58554;52.006;5.926;2023-05-22T11:27:34;100592.03;;;27.09;48.91
70909;BME280;58554;52.006;5.926;2023-05-22T11:30:01;100586.19;;;27.12;48.34
70909;BME280;58554;52.006;5.926;2023-05-22T11:32:31;100591.59;;;27.05;47.91
70909;BME280;58554;52.006;5.926;2023-05-22T11:35:01;100581.72;;;26.98;48.30
70909;BME280;58554;52.006;5.926;2023-05-22T11:37:27;100589.47;;;26.94;48.31
70909;BME280;58554;52.006;5.926;2023-05-22T11:40:01;100578.59;;;26.94;48.44
70909;BME280;58554;52.006;5.926;2023-05-22T11:42:29;100586.09;;;26.92;48.37
70909;BME280;58554;52.006;5.926;2023-05-22T11:44:56;100588.56;;;26.87;48.51
70909;BME280;58554;52.006;5.926;2023-05-22T11:47:24;100589.75;;;26.78;48.42
70909;BME280;58554;52.006;5.926;2023-05-22T11:49:55;100583.19;;;26.65;48.06
70909;BME280;58554;52.006;5.926;2023-05-22T11:52:23;100573.91;;;26.53;48.25
70909;BME280;58554;52.006;5.926;2023-05-22T11:54:50;100578.66;;;26.44;48.11
70909;BME280;58554;52.006;5.926;2023-05-22T11:57:18;100577.72;;;26.31;48.09
70909;BME280;58554;52.006;5.926;2023-05-22T11:59:45;100573.81;;;26.18;48.28
70909;BME280;58554;52.006;5.926;2023-05-22T12:02:13;100576.88;;;26.09;48.78
70909;BME280;58554;52.006;5.926;2023-05-22T12:04:41;100568.66;;;26.02;49.02
70909;BME280;58554;52.006;5.926;2023-05-22T12:07:10;100578.69;;;26.01;49.29
70909;BME280;58554;52.006;5.926;2023-05-22T12:09:38;100577.84;;;26.01;49.75
70909;BME280;58554;52.006;5.926;2023-05-22T12:12:06;100583.72;;;26.04;50.03
70909;BME280;58554;52.006;5.926;2023-05-22T12:14:34;100581.66;;;26.07;49.61
70909;BME280;58554;52.006;5.926;2023-05-22T12:17:01;100572.94;;;26.11;49.81
70909;BME280;58554;52.006;5.926;2023-05-22T12:19:28;100566.09;;;26.15;49.65
70909;BME280;58554;52.006;5.926;2023-05-22T12:21:54;100563.19;;;26.17;49.43
70909;BME280;58554;52.006;5.926;2023-05-22T12:24:24;100559.72;;;26.23;49.11
70909;BME280;58554;52.006;5.926;2023-05-22T12:26:51;100565.78;;;26.25;49.22
70909;BME280;58554;52.006;5.926;2023-05-22T12:29:21;100569.72;;;26.22;49.17
70909;BME280;58554;52.006;5.926;2023-05-22T12:31:48;100570.09;;;26.19;48.74
70909;BME280;58554;52.006;5.926;2023-05-22T12:34:15;100567.97;;;26.15;48.62
70909;BME280;58554;52.006;5.926;2023-05-22T12:36:44;100567.50;;;26.11;48.70
70909;BME280;58554;52.006;5.926;2023-05-22T12:39:15;100563.13;;;26.10;49.17
70909;BME280;58554;52.006;5.926;2023-05-22T12:41:45;100560.69;;;26.15;49.10
70909;BME280;58554;52.006;5.926;2023-05-22T12:44:14;100566.41;;;26.27;49.36
70909;BME280;58554;52.006;5.926;2023-05-22T12:46:41;100563.19;;;26.38;49.06
70909;BME280;58554;52.006;5.926;2023-05-22T12:49:08;100557.81;;;26.45;49.21
70909;BME280;58554;52.006;5.926;2023-05-22T12:51:35;100559.97;;;26.56;48.65
70909;BME280;58554;52.006;5.926;2023-05-22T12:54:03;100560.88;;;26.70;48.66
70909;BME280;58554;52.006;5.926;2023-05-22T12:56:30;100560.28;;;26.75;48.37
70909;BME280;58554;52.006;5.926;2023-05-22T12:59:00;100551.75;;;26.78;47.75